Аэропорт: Жуляны. Киев

ICAO: UKKK

METAR:
2021-04-21 20:00:00
UKKK 212000Z 22002MPS CAVOK 08/05 Q1013 R26/190060 NOSIG
METAR:
2021-04-21 17:05:00
TAF UKKK 211705Z 2118/2218 22004G09MPS 9999 BKN020 TX17/2212Z TN04/2203Z TEMPO 2118/2206 2000 -SHRA BR BKN006 SCT015CB TEMPO 2208/2218 VRB10G15MPS 2100 -TSRA BKN007 BKN020CB